sensor_id;sensor_type;location;lat;lon;timestamp;P1;durP1;ratioP1;P2;durP2;ratioP2
50483;SDS011;36409;52.168;20.878;2023-04-25T00:01:21;15.67;;;10.73;;
50483;SDS011;36409;52.168;20.878;2023-04-25T00:03:54;16.17;;;10.03;;
50483;SDS011;36409;52.168;20.878;2023-04-25T00:06:29;14.73;;;10.10;;
50483;SDS011;36409;52.168;20.878;2023-04-25T00:09:05;14.47;;;10.50;;
50483;SDS011;36409;52.168;20.878;2023-04-25T00:11:40;16.87;;;10.47;;
50483;SDS011;36409;52.168;20.878;2023-04-25T00:14:15;12.20;;;9.33;;
50483;SDS011;36409;52.168;20.878;2023-04-25T00:16:48;14.30;;;10.10;;
50483;SDS011;36409;52.168;20.878;2023-04-25T00:19:21;15.30;;;11.23;;
50483;SDS011;36409;52.168;20.878;2023-04-25T00:21:55;16.33;;;11.93;;
50483;SDS011;36409;52.168;20.878;2023-04-25T00:24:27;16.93;;;11.60;;
50483;SDS011;36409;52.168;20.878;2023-04-25T00:27:00;13.00;;;10.20;;
50483;SDS011;36409;52.168;20.878;2023-04-25T00:29:33;14.27;;;11.43;;
50483;SDS011;36409;52.168;20.878;2023-04-25T00:32:06;15.97;;;11.10;;
50483;SDS011;36409;52.168;20.878;2023-04-25T00:34:40;18.47;;;11.17;;
50483;SDS011;36409;52.168;20.878;2023-04-25T00:37:12;15.47;;;12.27;;
50483;SDS011;36409;52.168;20.878;2023-04-25T00:39:45;18.50;;;12.50;;
50483;SDS011;36409;52.168;20.878;2023-04-25T00:42:19;18.00;;;11.70;;
50483;SDS011;36409;52.168;20.878;2023-04-25T00:44:53;13.83;;;10.70;;
50483;SDS011;36409;52.168;20.878;2023-04-25T00:47:26;16.75;;;12.30;;
50483;SDS011;36409;52.168;20.878;2023-04-25T00:50:02;15.87;;;12.20;;
50483;SDS011;36409;52.168;20.878;2023-04-25T00:52:37;19.63;;;11.87;;
50483;SDS011;36409;52.168;20.878;2023-04-25T00:55:16;17.75;;;11.75;;
50483;SDS011;36409;52.168;20.878;2023-04-25T00:57:50;13.83;;;11.40;;
50483;SDS011;36409;52.168;20.878;2023-04-25T01:00:22;15.15;;;10.58;;
50483;SDS011;36409;52.168;20.878;2023-04-25T01:02:55;15.43;;;11.03;;
50483;SDS011;36409;52.168;20.878;2023-04-25T01:05:30;17.93;;;12.63;;
50483;SDS011;36409;52.168;20.878;2023-04-25T01:08:02;17.47;;;11.80;;
50483;SDS011;36409;52.168;20.878;2023-04-25T01:10:35;15.40;;;10.67;;
50483;SDS011;36409;52.168;20.878;2023-04-25T01:13:14;14.77;;;10.03;;
50483;SDS011;36409;52.168;20.878;2023-04-25T01:15:49;18.27;;;11.53;;
50483;SDS011;36409;52.168;20.878;2023-04-25T01:18:22;17.10;;;10.93;;
50483;SDS011;36409;52.168;20.878;2023-04-25T01:20:55;17.10;;;11.33;;
50483;SDS011;36409;52.168;20.878;2023-04-25T01:23:28;12.73;;;10.17;;
50483;SDS011;36409;52.168;20.878;2023-04-25T01:26:02;14.23;;;9.97;;
50483;SDS011;36409;52.168;20.878;2023-04-25T01:28:37;13.30;;;10.30;;
50483;SDS011;36409;52.168;20.878;2023-04-25T01:31:12;14.20;;;9.80;;
50483;SDS011;36409;52.168;20.878;2023-04-25T01:33:48;12.93;;;10.30;;
50483;SDS011;36409;52.168;20.878;2023-04-25T01:36:21;15.20;;;10.13;;
50483;SDS011;36409;52.168;20.878;2023-04-25T01:38:54;14.70;;;9.60;;
50483;SDS011;36409;52.168;20.878;2023-04-25T01:41:28;12.43;;;8.95;;
50483;SDS011;36409;52.168;20.878;2023-04-25T01:44:04;14.05;;;9.20;;
50483;SDS011;36409;52.168;20.878;2023-04-25T01:46:43;13.50;;;10.30;;
50483;SDS011;36409;52.168;20.878;2023-04-25T01:49:15;13.57;;;8.80;;
50483;SDS011;36409;52.168;20.878;2023-04-25T01:51:49;14.17;;;9.27;;
50483;SDS011;36409;52.168;20.878;2023-04-25T01:54:22;12.20;;;8.83;;
50483;SDS011;36409;52.168;20.878;2023-04-25T01:56:56;12.30;;;9.30;;
50483;SDS011;36409;52.168;20.878;2023-04-25T01:59:29;12.07;;;8.93;;
50483;SDS011;36409;52.168;20.878;2023-04-25T02:02:18;15.20;;;10.13;;
50483;SDS011;36409;52.168;20.878;2023-04-25T02:04:52;17.05;;;10.70;;
50483;SDS011;36409;52.168;20.878;2023-04-25T02:07:29;13.53;;;10.57;;
50483;SDS011;36409;52.168;20.878;2023-04-25T02:10:03;14.53;;;10.45;;
50483;SDS011;36409;52.168;20.878;2023-04-25T02:12:43;12.53;;;9.57;;
50483;SDS011;36409;52.168;20.878;2023-04-25T02:15:39;19.73;;;11.17;;
50483;SDS011;36409;52.168;20.878;2023-04-25T02:18:21;14.05;;;10.00;;
50483;SDS011;36409;52.168;20.878;2023-04-25T02:20:55;15.03;;;10.45;;
50483;SDS011;36409;52.168;20.878;2023-04-25T02:23:29;17.77;;;10.53;;
50483;SDS011;36409;52.168;20.878;2023-04-25T02:26:02;15.98;;;10.60;;
50483;SDS011;36409;52.168;20.878;2023-04-25T02:28:39;15.30;;;10.93;;
50483;SDS011;36409;52.168;20.878;2023-04-25T02:31:12;14.47;;;10.73;;
50483;SDS011;36409;52.168;20.878;2023-04-25T02:33:44;13.50;;;10.30;;
50483;SDS011;36409;52.168;20.878;2023-04-25T02:38:50;13.10;;;9.73;;
50483;SDS011;36409;52.168;20.878;2023-04-25T02:41:23;15.77;;;11.53;;
50483;SDS011;36409;52.168;20.878;2023-04-25T02:43:56;15.07;;;11.13;;
50483;SDS011;36409;52.168;20.878;2023-04-25T02:46:30;13.32;;;10.75;;
50483;SDS011;36409;52.168;20.878;2023-04-25T02:49:10;15.80;;;10.73;;
50483;SDS011;36409;52.168;20.878;2023-04-25T02:51:42;14.67;;;10.67;;
50483;SDS011;36409;52.168;20.878;2023-04-25T02:54:16;14.40;;;9.28;;
50483;SDS011;36409;52.168;20.878;2023-04-25T02:56:50;14.57;;;9.90;;
50483;SDS011;36409;52.168;20.878;2023-04-25T02:59:26;11.93;;;8.57;;
50483;SDS011;36409;52.168;20.878;2023-04-25T03:02:00;15.80;;;8.43;;
50483;SDS011;36409;52.168;20.878;2023-04-25T03:04:33;12.13;;;8.47;;
50483;SDS011;36409;52.168;20.878;2023-04-25T03:07:06;12.33;;;8.87;;
50483;SDS011;36409;52.168;20.878;2023-04-25T03:09:41;13.63;;;9.87;;
50483;SDS011;36409;52.168;20.878;2023-04-25T03:12:14;12.40;;;8.60;;
50483;SDS011;36409;52.168;20.878;2023-04-25T03:14:46;15.73;;;10.00;;
50483;SDS011;36409;52.168;20.878;2023-04-25T03:17:20;14.47;;;9.97;;
50483;SDS011;36409;52.168;20.878;2023-04-25T03:19:56;13.60;;;9.50;;
50483;SDS011;36409;52.168;20.878;2023-04-25T03:22:31;13.47;;;9.07;;
50483;SDS011;36409;52.168;20.878;2023-04-25T03:25:04;14.83;;;9.80;;
50483;SDS011;36409;52.168;20.878;2023-04-25T03:27:38;13.05;;;8.80;;
50483;SDS011;36409;52.168;20.878;2023-04-25T03:30:11;13.77;;;9.00;;
50483;SDS011;36409;52.168;20.878;2023-04-25T03:32:47;11.80;;;8.33;;
50483;SDS011;36409;52.168;20.878;2023-04-25T03:35:21;14.13;;;8.90;;
50483;SDS011;36409;52.168;20.878;2023-04-25T03:37:54;10.93;;;8.00;;
50483;SDS011;36409;52.168;20.878;2023-04-25T03:40:30;11.23;;;7.37;;
50483;SDS011;36409;52.168;20.878;2023-04-25T03:43:29;11.70;;;7.93;;
50483;SDS011;36409;52.168;20.878;2023-04-25T03:46:06;9.63;;;6.97;;
50483;SDS011;36409;52.168;20.878;2023-04-25T03:51:10;8.35;;;6.10;;
50483;SDS011;36409;52.168;20.878;2023-04-25T03:53:44;9.63;;;6.47;;
50483;SDS011;36409;52.168;20.878;2023-04-25T03:56:18;9.97;;;7.17;;
50483;SDS011;36409;52.168;20.878;2023-04-25T03:58:57;12.63;;;7.27;;
50483;SDS011;36409;52.168;20.878;2023-04-25T04:01:30;10.30;;;6.87;;
50483;SDS011;36409;52.168;20.878;2023-04-25T04:04:05;9.07;;;6.43;;
50483;SDS011;36409;52.168;20.878;2023-04-25T04:06:41;11.03;;;7.00;;
50483;SDS011;36409;52.168;20.878;2023-04-25T04:09:22;11.47;;;6.83;;
50483;SDS011;36409;52.168;20.878;2023-04-25T04:11:58;9.20;;;6.47;;
50483;SDS011;36409;52.168;20.878;2023-04-25T04:14:34;9.37;;;6.20;;
50483;SDS011;36409;52.168;20.878;2023-04-25T04:17:07;8.27;;;6.17;;
50483;SDS011;36409;52.168;20.878;2023-04-25T04:19:40;8.90;;;5.47;;
50483;SDS011;36409;52.168;20.878;2023-04-25T04:22:20;9.53;;;6.90;;
50483;SDS011;36409;52.168;20.878;2023-04-25T04:24:58;9.03;;;6.67;;
50483;SDS011;36409;52.168;20.878;2023-04-25T04:27:54;9.63;;;5.70;;
50483;SDS011;36409;52.168;20.878;2023-04-25T04:30:52;9.97;;;6.60;;
50483;SDS011;36409;52.168;20.878;2023-04-25T04:33:24;9.70;;;6.03;;
50483;SDS011;36409;52.168;20.878;2023-04-25T04:36:02;9.87;;;6.53;;
50483;SDS011;36409;52.168;20.878;2023-04-25T04:38:38;10.05;;;6.60;;
50483;SDS011;36409;52.168;20.878;2023-04-25T04:41:20;11.50;;;6.87;;
50483;SDS011;36409;52.168;20.878;2023-04-25T04:44:14;9.90;;;7.07;;
50483;SDS011;36409;52.168;20.878;2023-04-25T04:47:07;9.77;;;7.27;;
50483;SDS011;36409;52.168;20.878;2023-04-25T04:49:57;12.77;;;7.37;;
50483;SDS011;36409;52.168;20.878;2023-04-25T04:52:41;10.60;;;7.55;;
50483;SDS011;36409;52.168;20.878;2023-04-25T04:55:40;10.53;;;7.17;;
50483;SDS011;36409;52.168;20.878;2023-04-25T04:58:33;10.33;;;7.00;;
50483;SDS011;36409;52.168;20.878;2023-04-25T05:01:13;9.97;;;7.00;;
50483;SDS011;36409;52.168;20.878;2023-04-25T05:04:07;10.27;;;7.00;;
50483;SDS011;36409;52.168;20.878;2023-04-25T05:07:18;10.23;;;6.63;;
50483;SDS011;36409;52.168;20.878;2023-04-25T05:10:07;8.93;;;6.60;;
50483;SDS011;36409;52.168;20.878;2023-04-25T05:13:03;10.20;;;6.83;;
50483;SDS011;36409;52.168;20.878;2023-04-25T05:15:52;10.67;;;6.63;;
50483;SDS011;36409;52.168;20.878;2023-04-25T05:18:50;8.57;;;6.17;;
50483;SDS011;36409;52.168;20.878;2023-04-25T05:21:55;10.83;;;6.57;;
50483;SDS011;36409;52.168;20.878;2023-04-25T05:24:42;12.53;;;6.83;;
50483;SDS011;36409;52.168;20.878;2023-04-25T05:27:41;8.40;;;6.60;;
50483;SDS011;36409;52.168;20.878;2023-04-25T05:30:43;19.95;;;7.15;;
50483;SDS011;36409;52.168;20.878;2023-04-25T05:33:38;9.27;;;6.80;;
50483;SDS011;36409;52.168;20.878;2023-04-25T05:36:11;11.83;;;7.40;;
50483;SDS011;36409;52.168;20.878;2023-04-25T05:38:43;9.53;;;7.17;;
50483;SDS011;36409;52.168;20.878;2023-04-25T05:41:17;12.60;;;8.30;;
50483;SDS011;36409;52.168;20.878;2023-04-25T05:43:58;10.90;;;6.67;;
50483;SDS011;36409;52.168;20.878;2023-04-25T05:46:44;11.90;;;7.63;;
50483;SDS011;36409;52.168;20.878;2023-04-25T05:49:33;12.70;;;6.90;;
50483;SDS011;36409;52.168;20.878;2023-04-25T05:52:21;9.20;;;7.10;;
50483;SDS011;36409;52.168;20.878;2023-04-25T05:55:18;13.33;;;7.67;;
50483;SDS011;36409;52.168;20.878;2023-04-25T05:57:51;9.97;;;7.27;;
50483;SDS011;36409;52.168;20.878;2023-04-25T06:00:24;10.15;;;6.55;;
50483;SDS011;36409;52.168;20.878;2023-04-25T06:02:58;9.20;;;6.75;;
50483;SDS011;36409;52.168;20.878;2023-04-25T06:05:31;10.70;;;7.33;;
50483;SDS011;36409;52.168;20.878;2023-04-25T06:08:04;9.67;;;7.13;;
50483;SDS011;36409;52.168;20.878;2023-04-25T06:10:37;9.80;;;7.60;;
50483;SDS011;36409;52.168;20.878;2023-04-25T06:13:09;18.47;;;12.20;;
50483;SDS011;36409;52.168;20.878;2023-04-25T06:15:42;17.77;;;11.93;;
50483;SDS011;36409;52.168;20.878;2023-04-25T06:18:16;14.55;;;10.90;;
50483;SDS011;36409;52.168;20.878;2023-04-25T06:20:49;15.30;;;9.00;;
50483;SDS011;36409;52.168;20.878;2023-04-25T06:23:22;11.00;;;8.07;;
50483;SDS011;36409;52.168;20.878;2023-04-25T06:26:00;9.33;;;6.70;;
50483;SDS011;36409;52.168;20.878;2023-04-25T06:28:36;9.47;;;6.33;;
50483;SDS011;36409;52.168;20.878;2023-04-25T06:31:08;9.53;;;5.43;;
50483;SDS011;36409;52.168;20.878;2023-04-25T06:33:41;9.53;;;5.97;;
50483;SDS011;36409;52.168;20.878;2023-04-25T06:36:13;11.27;;;6.03;;
50483;SDS011;36409;52.168;20.878;2023-04-25T06:38:47;8.40;;;6.62;;
50483;SDS011;36409;52.168;20.878;2023-04-25T06:41:21;9.27;;;6.17;;
50483;SDS011;36409;52.168;20.878;2023-04-25T06:43:54;10.40;;;6.80;;
50483;SDS011;36409;52.168;20.878;2023-04-25T06:46:34;9.70;;;7.30;;
50483;SDS011;36409;52.168;20.878;2023-04-25T06:49:08;10.67;;;7.20;;
50483;SDS011;36409;52.168;20.878;2023-04-25T06:51:41;8.77;;;6.13;;
50483;SDS011;36409;52.168;20.878;2023-04-25T06:54:13;9.37;;;6.43;;
50483;SDS011;36409;52.168;20.878;2023-04-25T06:56:57;8.70;;;6.05;;
50483;SDS011;36409;52.168;20.878;2023-04-25T06:59:30;9.88;;;6.12;;
50483;SDS011;36409;52.168;20.878;2023-04-25T07:02:04;8.80;;;6.57;;
50483;SDS011;36409;52.168;20.878;2023-04-25T07:04:38;10.67;;;6.60;;
50483;SDS011;36409;52.168;20.878;2023-04-25T07:07:12;9.87;;;6.50;;
50483;SDS011;36409;52.168;20.878;2023-04-25T07:10:04;9.57;;;7.27;;
50483;SDS011;36409;52.168;20.878;2023-04-25T07:12:38;9.87;;;6.93;;
50483;SDS011;36409;52.168;20.878;2023-04-25T07:15:11;9.13;;;6.40;;
50483;SDS011;36409;52.168;20.878;2023-04-25T07:17:46;10.23;;;6.22;;
50483;SDS011;36409;52.168;20.878;2023-04-25T07:20:20;8.30;;;6.30;;
50483;SDS011;36409;52.168;20.878;2023-04-25T07:22:53;9.53;;;6.40;;
50483;SDS011;36409;52.168;20.878;2023-04-25T07:25:27;9.38;;;6.58;;
50483;SDS011;36409;52.168;20.878;2023-04-25T07:28:00;9.53;;;5.77;;
50483;SDS011;36409;52.168;20.878;2023-04-25T07:30:33;9.33;;;5.75;;
50483;SDS011;36409;52.168;20.878;2023-04-25T07:33:07;10.93;;;6.10;;
50483;SDS011;36409;52.168;20.878;2023-04-25T07:35:39;10.55;;;6.78;;
50483;SDS011;36409;52.168;20.878;2023-04-25T07:38:15;8.87;;;6.13;;
50483;SDS011;36409;52.168;20.878;2023-04-25T07:40:48;8.23;;;5.37;;
50483;SDS011;36409;52.168;20.878;2023-04-25T07:43:24;7.93;;;4.93;;
50483;SDS011;36409;52.168;20.878;2023-04-25T07:46:02;7.90;;;5.17;;
50483;SDS011;36409;52.168;20.878;2023-04-25T07:48:39;9.77;;;4.90;;
50483;SDS011;36409;52.168;20.878;2023-04-25T07:51:12;6.30;;;5.10;;
50483;SDS011;36409;52.168;20.878;2023-04-25T07:53:43;9.23;;;5.13;;
50483;SDS011;36409;52.168;20.878;2023-04-25T07:56:20;6.83;;;4.00;;
50483;SDS011;36409;52.168;20.878;2023-04-25T07:58:54;7.17;;;4.17;;
50483;SDS011;36409;52.168;20.878;2023-04-25T08:01:27;7.83;;;3.83;;
50483;SDS011;36409;52.168;20.878;2023-04-25T08:04:03;5.63;;;4.13;;
50483;SDS011;36409;52.168;20.878;2023-04-25T08:06:58;6.30;;;3.80;;
50483;SDS011;36409;52.168;20.878;2023-04-25T08:09:36;5.73;;;3.90;;
50483;SDS011;36409;52.168;20.878;2023-04-25T08:12:14;6.20;;;4.03;;
50483;SDS011;36409;52.168;20.878;2023-04-25T08:14:52;5.43;;;3.83;;
50483;SDS011;36409;52.168;20.878;2023-04-25T08:17:26;7.80;;;3.90;;
50483;SDS011;36409;52.168;20.878;2023-04-25T08:19:59;8.10;;;5.33;;
50483;SDS011;36409;52.168;20.878;2023-04-25T08:22:36;6.50;;;4.20;;
50483;SDS011;36409;52.168;20.878;2023-04-25T08:25:28;8.07;;;4.53;;
50483;SDS011;36409;52.168;20.878;2023-04-25T08:28:00;6.30;;;4.50;;
50483;SDS011;36409;52.168;20.878;2023-04-25T08:30:33;5.83;;;4.22;;
50483;SDS011;36409;52.168;20.878;2023-04-25T08:33:11;5.87;;;3.77;;
50483;SDS011;36409;52.168;20.878;2023-04-25T08:36:13;7.47;;;4.40;;
50483;SDS011;36409;52.168;20.878;2023-04-25T08:39:06;5.37;;;3.33;;
50483;SDS011;36409;52.168;20.878;2023-04-25T08:41:45;5.33;;;3.27;;
50483;SDS011;36409;52.168;20.878;2023-04-25T08:44:20;5.63;;;3.23;;
50483;SDS011;36409;52.168;20.878;2023-04-25T08:46:54;4.72;;;3.30;;
50483;SDS011;36409;52.168;20.878;2023-04-25T08:49:32;5.17;;;3.20;;
50483;SDS011;36409;52.168;20.878;2023-04-25T08:52:06;5.37;;;3.20;;
50483;SDS011;36409;52.168;20.878;2023-04-25T08:54:43;4.87;;;3.57;;
50483;SDS011;36409;52.168;20.878;2023-04-25T08:57:21;5.13;;;3.73;;
50483;SDS011;36409;52.168;20.878;2023-04-25T08:59:58;5.67;;;3.57;;
50483;SDS011;36409;52.168;20.878;2023-04-25T09:02:36;5.77;;;4.13;;
50483;SDS011;36409;52.168;20.878;2023-04-25T09:05:10;5.20;;;3.55;;
50483;SDS011;36409;52.168;20.878;2023-04-25T09:07:48;4.63;;;3.17;;
50483;SDS011;36409;52.168;20.878;2023-04-25T09:10:21;5.53;;;3.70;;
50483;SDS011;36409;52.168;20.878;2023-04-25T09:13:05;5.30;;;3.40;;
50483;SDS011;36409;52.168;20.878;2023-04-25T09:16:19;5.95;;;3.92;;
50483;SDS011;36409;52.168;20.878;2023-04-25T09:19:22;5.33;;;3.67;;
50483;SDS011;36409;52.168;20.878;2023-04-25T09:22:23;7.33;;;4.33;;
50483;SDS011;36409;52.168;20.878;2023-04-25T09:25:00;4.87;;;3.70;;
50483;SDS011;36409;52.168;20.878;2023-04-25T09:27:38;8.87;;;4.20;;
50483;SDS011;36409;52.168;20.878;2023-04-25T09:30:33;6.10;;;3.67;;
50483;SDS011;36409;52.168;20.878;2023-04-25T09:33:14;6.17;;;3.70;;
50483;SDS011;36409;52.168;20.878;2023-04-25T09:35:50;4.83;;;3.60;;
50483;SDS011;36409;52.168;20.878;2023-04-25T09:38:46;6.67;;;4.17;;
50483;SDS011;36409;52.168;20.878;2023-04-25T09:41:28;5.27;;;3.83;;
50483;SDS011;36409;52.168;20.878;2023-04-25T09:44:06;5.93;;;4.00;;
50483;SDS011;36409;52.168;20.878;2023-04-25T09:46:39;5.93;;;4.33;;
50483;SDS011;36409;52.168;20.878;2023-04-25T09:49:19;8.53;;;4.90;;
50483;SDS011;36409;52.168;20.878;2023-04-25T09:52:05;6.73;;;4.37;;
50483;SDS011;36409;52.168;20.878;2023-04-25T09:57:27;7.50;;;4.70;;
50483;SDS011;36409;52.168;20.878;2023-04-25T10:00:00;7.40;;;5.00;;
50483;SDS011;36409;52.168;20.878;2023-04-25T10:02:43;10.60;;;6.27;;
50483;SDS011;36409;52.168;20.878;2023-04-25T10:05:35;8.47;;;5.13;;
50483;SDS011;36409;52.168;20.878;2023-04-25T10:08:10;8.33;;;4.70;;
50483;SDS011;36409;52.168;20.878;2023-04-25T10:10:44;5.33;;;4.10;;
50483;SDS011;36409;52.168;20.878;2023-04-25T10:13:23;6.93;;;4.80;;
50483;SDS011;36409;52.168;20.878;2023-04-25T10:15:56;6.23;;;4.37;;
50483;SDS011;36409;52.168;20.878;2023-04-25T10:18:31;8.43;;;5.53;;
50483;SDS011;36409;52.168;20.878;2023-04-25T10:21:04;6.77;;;5.17;;
50483;SDS011;36409;52.168;20.878;2023-04-25T10:23:38;6.33;;;5.00;;
50483;SDS011;36409;52.168;20.878;2023-04-25T10:26:11;7.07;;;4.87;;
50483;SDS011;36409;52.168;20.878;2023-04-25T10:28:56;7.97;;;5.30;;
50483;SDS011;36409;52.168;20.878;2023-04-25T10:31:30;8.57;;;6.00;;
50483;SDS011;36409;52.168;20.878;2023-04-25T10:34:05;7.23;;;5.63;;
50483;SDS011;36409;52.168;20.878;2023-04-25T10:36:37;6.50;;;5.13;;
50483;SDS011;36409;52.168;20.878;2023-04-25T10:39:10;7.70;;;4.67;;
50483;SDS011;36409;52.168;20.878;2023-04-25T10:41:52;7.23;;;4.40;;
50483;SDS011;36409;52.168;20.878;2023-04-25T10:44:27;6.42;;;4.80;;
50483;SDS011;36409;52.168;20.878;2023-04-25T10:47:02;13.80;;;5.53;;
50483;SDS011;36409;52.168;20.878;2023-04-25T10:49:37;8.80;;;5.57;;
50483;SDS011;36409;52.168;20.878;2023-04-25T10:52:18;9.10;;;5.73;;
50483;SDS011;36409;52.168;20.878;2023-04-25T10:54:56;10.67;;;5.90;;
50483;SDS011;36409;52.168;20.878;2023-04-25T10:57:40;9.45;;;5.75;;
50483;SDS011;36409;52.168;20.878;2023-04-25T11:00:16;7.60;;;4.80;;
50483;SDS011;36409;52.168;20.878;2023-04-25T11:02:59;5.60;;;4.17;;
50483;SDS011;36409;52.168;20.878;2023-04-25T11:05:34;10.17;;;4.40;;
50483;SDS011;36409;52.168;20.878;2023-04-25T11:08:28;6.07;;;3.90;;
50483;SDS011;36409;52.168;20.878;2023-04-25T11:11:12;6.53;;;4.00;;
50483;SDS011;36409;52.168;20.878;2023-04-25T11:13:46;5.27;;;3.60;;
50483;SDS011;36409;52.168;20.878;2023-04-25T11:16:19;5.77;;;3.33;;
50483;SDS011;36409;52.168;20.878;2023-04-25T11:18:58;7.43;;;3.57;;
50483;SDS011;36409;52.168;20.878;2023-04-25T11:21:31;5.60;;;3.00;;
50483;SDS011;36409;52.168;20.878;2023-04-25T11:24:05;6.10;;;3.13;;
50483;SDS011;36409;52.168;20.878;2023-04-25T11:26:39;6.93;;;3.77;;
50483;SDS011;36409;52.168;20.878;2023-04-25T11:29:13;5.57;;;3.00;;
50483;SDS011;36409;52.168;20.878;2023-04-25T11:31:45;4.40;;;2.70;;
50483;SDS011;36409;52.168;20.878;2023-04-25T11:34:21;5.60;;;3.40;;
50483;SDS011;36409;52.168;20.878;2023-04-25T11:36:55;5.67;;;2.92;;
50483;SDS011;36409;52.168;20.878;2023-04-25T11:39:29;7.12;;;2.90;;
50483;SDS011;36409;52.168;20.878;2023-04-25T11:42:05;5.73;;;2.87;;
50483;SDS011;36409;52.168;20.878;2023-04-25T11:44:42;5.40;;;3.00;;
50483;SDS011;36409;52.168;20.878;2023-04-25T11:47:15;5.17;;;2.93;;
50483;SDS011;36409;52.168;20.878;2023-04-25T11:49:47;6.03;;;3.17;;
50483;SDS011;36409;52.168;20.878;2023-04-25T11:52:25;6.10;;;3.00;;
50483;SDS011;36409;52.168;20.878;2023-04-25T11:55:06;4.13;;;2.53;;
50483;SDS011;36409;52.168;20.878;2023-04-25T11:57:44;5.77;;;3.43;;
50483;SDS011;36409;52.168;20.878;2023-04-25T12:00:21;7.07;;;3.60;;
50483;SDS011;36409;52.168;20.878;2023-04-25T12:02:56;6.13;;;3.70;;
50483;SDS011;36409;52.168;20.878;2023-04-25T12:05:30;6.63;;;3.83;;
50483;SDS011;36409;52.168;20.878;2023-04-25T12:10:45;6.83;;;3.40;;
50483;SDS011;36409;52.168;20.878;2023-04-25T12:13:22;4.73;;;3.30;;
50483;SDS011;36409;52.168;20.878;2023-04-25T12:15:57;6.63;;;3.37;;
50483;SDS011;36409;52.168;20.878;2023-04-25T12:18:32;5.37;;;3.40;;
50483;SDS011;36409;52.168;20.878;2023-04-25T12:21:09;10.20;;;3.50;;
50483;SDS011;36409;52.168;20.878;2023-04-25T12:23:42;6.57;;;4.10;;
50483;SDS011;36409;52.168;20.878;2023-04-25T12:26:15;4.97;;;3.60;;
50483;SDS011;36409;52.168;20.878;2023-04-25T12:28:51;7.17;;;3.50;;
50483;SDS011;36409;52.168;20.878;2023-04-25T12:31:24;6.33;;;3.37;;
50483;SDS011;36409;52.168;20.878;2023-04-25T12:34:01;5.27;;;3.53;;
50483;SDS011;36409;52.168;20.878;2023-04-25T12:36:34;5.43;;;3.13;;
50483;SDS011;36409;52.168;20.878;2023-04-25T12:39:06;6.90;;;3.47;;
50483;SDS011;36409;52.168;20.878;2023-04-25T12:41:40;6.27;;;3.93;;
50483;SDS011;36409;52.168;20.878;2023-04-25T12:44:14;4.77;;;3.33;;
50483;SDS011;36409;52.168;20.878;2023-04-25T12:46:48;5.00;;;3.60;;
50483;SDS011;36409;52.168;20.878;2023-04-25T12:49:21;5.70;;;3.47;;
50483;SDS011;36409;52.168;20.878;2023-04-25T12:51:56;5.87;;;3.87;;
50483;SDS011;36409;52.168;20.878;2023-04-25T12:57:13;7.33;;;3.60;;
50483;SDS011;36409;52.168;20.878;2023-04-25T12:59:46;6.17;;;3.57;;
50483;SDS011;36409;52.168;20.878;2023-04-25T13:02:20;7.33;;;4.10;;
50483;SDS011;36409;52.168;20.878;2023-04-25T13:04:55;7.03;;;4.20;;
50483;SDS011;36409;52.168;20.878;2023-04-25T13:07:28;9.43;;;4.63;;
50483;SDS011;36409;52.168;20.878;2023-04-25T13:10:04;6.73;;;4.70;;
50483;SDS011;36409;52.168;20.878;2023-04-25T13:12:38;7.07;;;4.40;;
50483;SDS011;36409;52.168;20.878;2023-04-25T13:15:10;7.40;;;4.60;;
50483;SDS011;36409;52.168;20.878;2023-04-25T13:17:44;7.70;;;4.83;;
50483;SDS011;36409;52.168;20.878;2023-04-25T13:20:17;7.40;;;4.60;;
50483;SDS011;36409;52.168;20.878;2023-04-25T13:25:22;6.13;;;4.07;;
50483;SDS011;36409;52.168;20.878;2023-04-25T13:27:56;8.67;;;4.63;;
50483;SDS011;36409;52.168;20.878;2023-04-25T13:30:29;6.28;;;4.33;;
50483;SDS011;36409;52.168;20.878;2023-04-25T13:33:01;8.07;;;4.77;;
50483;SDS011;36409;52.168;20.878;2023-04-25T13:35:36;8.33;;;5.17;;
50483;SDS011;36409;52.168;20.878;2023-04-25T13:38:09;8.63;;;5.08;;
50483;SDS011;36409;52.168;20.878;2023-04-25T13:40:42;7.90;;;4.60;;
50483;SDS011;36409;52.168;20.878;2023-04-25T13:43:15;7.63;;;4.70;;
50483;SDS011;36409;52.168;20.878;2023-04-25T13:45:47;8.07;;;5.20;;
50483;SDS011;36409;52.168;20.878;2023-04-25T13:48:21;8.87;;;4.97;;
50483;SDS011;36409;52.168;20.878;2023-04-25T13:50:56;6.87;;;4.73;;
50483;SDS011;36409;52.168;20.878;2023-04-25T13:53:31;8.17;;;4.83;;
50483;SDS011;36409;52.168;20.878;2023-04-25T13:56:04;9.83;;;5.83;;
50483;SDS011;36409;52.168;20.878;2023-04-25T13:58:37;6.60;;;5.00;;
50483;SDS011;36409;52.168;20.878;2023-04-25T14:01:10;9.10;;;5.17;;
50483;SDS011;36409;52.168;20.878;2023-04-25T14:03:43;7.33;;;4.90;;
50483;SDS011;36409;52.168;20.878;2023-04-25T14:06:16;7.70;;;4.80;;
50483;SDS011;36409;52.168;20.878;2023-04-25T14:08:52;7.77;;;4.80;;
50483;SDS011;36409;52.168;20.878;2023-04-25T14:11:30;8.33;;;4.93;;
50483;SDS011;36409;52.168;20.878;2023-04-25T14:14:04;7.70;;;4.77;;
50483;SDS011;36409;52.168;20.878;2023-04-25T14:16:36;6.63;;;4.77;;
50483;SDS011;36409;52.168;20.878;2023-04-25T14:19:10;6.73;;;4.67;;
50483;SDS011;36409;52.168;20.878;2023-04-25T14:21:42;6.93;;;4.57;;
50483;SDS011;36409;52.168;20.878;2023-04-25T14:24:15;8.27;;;5.43;;
50483;SDS011;36409;52.168;20.878;2023-04-25T14:26:49;7.10;;;4.80;;
50483;SDS011;36409;52.168;20.878;2023-04-25T14:29:25;6.60;;;5.20;;
50483;SDS011;36409;52.168;20.878;2023-04-25T14:31:57;7.50;;;4.60;;
50483;SDS011;36409;52.168;20.878;2023-04-25T14:34:32;6.77;;;4.83;;
50483;SDS011;36409;52.168;20.878;2023-04-25T14:37:05;6.03;;;4.55;;
50483;SDS011;36409;52.168;20.878;2023-04-25T14:39:38;6.67;;;4.93;;
50483;SDS011;36409;52.168;20.878;2023-04-25T14:42:13;7.50;;;4.77;;
50483;SDS011;36409;52.168;20.878;2023-04-25T14:44:47;9.30;;;4.95;;
50483;SDS011;36409;52.168;20.878;2023-04-25T14:47:26;8.20;;;4.33;;
50483;SDS011;36409;52.168;20.878;2023-04-25T14:49:59;7.20;;;4.93;;
50483;SDS011;36409;52.168;20.878;2023-04-25T14:52:32;7.97;;;5.60;;
50483;SDS011;36409;52.168;20.878;2023-04-25T14:55:05;8.73;;;5.50;;
50483;SDS011;36409;52.168;20.878;2023-04-25T14:57:39;9.10;;;5.35;;
50483;SDS011;36409;52.168;20.878;2023-04-25T15:00:12;8.53;;;5.80;;
50483;SDS011;36409;52.168;20.878;2023-04-25T15:02:48;13.50;;;6.10;;
50483;SDS011;36409;52.168;20.878;2023-04-25T15:05:25;7.67;;;5.07;;
50483;SDS011;36409;52.168;20.878;2023-04-25T15:07:58;9.03;;;5.20;;
50483;SDS011;36409;52.168;20.878;2023-04-25T15:10:30;9.40;;;5.40;;
50483;SDS011;36409;52.168;20.878;2023-04-25T15:13:03;8.60;;;5.10;;
50483;SDS011;36409;52.168;20.878;2023-04-25T15:15:36;8.93;;;5.70;;
50483;SDS011;36409;52.168;20.878;2023-04-25T15:18:10;9.97;;;5.43;;
50483;SDS011;36409;52.168;20.878;2023-04-25T15:20:42;8.17;;;5.43;;
50483;SDS011;36409;52.168;20.878;2023-04-25T15:23:16;8.55;;;5.67;;
50483;SDS011;36409;52.168;20.878;2023-04-25T15:25:51;8.80;;;5.87;;
50483;SDS011;36409;52.168;20.878;2023-04-25T15:30:56;10.67;;;5.43;;
50483;SDS011;36409;52.168;20.878;2023-04-25T15:33:29;8.30;;;5.77;;
50483;SDS011;36409;52.168;20.878;2023-04-25T15:36:02;8.23;;;5.40;;
50483;SDS011;36409;52.168;20.878;2023-04-25T15:38:36;7.83;;;5.58;;
50483;SDS011;36409;52.168;20.878;2023-04-25T15:41:08;9.77;;;5.73;;
50483;SDS011;36409;52.168;20.878;2023-04-25T15:43:44;13.27;;;5.97;;